sensor_id;sensor_type;location;lat;lon;timestamp;P1;durP1;ratioP1;P2;durP2;ratioP2
16994;SDS011;8614;48.522;9.206;2023-08-24T00:00:33;12.33;;;11.03;;
16994;SDS011;8614;48.522;9.206;2023-08-24T00:03:00;11.50;;;10.60;;
16994;SDS011;8614;48.522;9.206;2023-08-24T00:05:28;11.43;;;10.43;;
16994;SDS011;8614;48.522;9.206;2023-08-24T00:07:55;11.43;;;10.43;;
16994;SDS011;8614;48.522;9.206;2023-08-24T00:10:22;11.40;;;10.43;;
16994;SDS011;8614;48.522;9.206;2023-08-24T00:12:50;11.47;;;10.57;;
16994;SDS011;8614;48.522;9.206;2023-08-24T00:15:17;11.57;;;10.47;;
16994;SDS011;8614;48.522;9.206;2023-08-24T00:17:43;10.87;;;10.07;;
16994;SDS011;8614;48.522;9.206;2023-08-24T00:20:10;11.07;;;10.27;;
16994;SDS011;8614;48.522;9.206;2023-08-24T00:22:38;10.60;;;9.80;;
16994;SDS011;8614;48.522;9.206;2023-08-24T00:25:06;11.30;;;10.40;;
16994;SDS011;8614;48.522;9.206;2023-08-24T00:27:33;11.53;;;10.53;;
16994;SDS011;8614;48.522;9.206;2023-08-24T00:30:01;19.47;;;10.77;;
16994;SDS011;8614;48.522;9.206;2023-08-24T00:32:30;11.43;;;10.53;;
16994;SDS011;8614;48.522;9.206;2023-08-24T00:34:58;11.90;;;10.97;;
16994;SDS011;8614;48.522;9.206;2023-08-24T00:37:26;11.77;;;10.67;;
16994;SDS011;8614;48.522;9.206;2023-08-24T00:39:55;12.70;;;11.60;;
16994;SDS011;8614;48.522;9.206;2023-08-24T00:42:22;11.33;;;10.33;;
16994;SDS011;8614;48.522;9.206;2023-08-24T00:44:49;12.73;;;11.70;;
16994;SDS011;8614;48.522;9.206;2023-08-24T00:47:18;11.73;;;10.63;;
16994;SDS011;8614;48.522;9.206;2023-08-24T00:49:45;11.83;;;10.90;;
16994;SDS011;8614;48.522;9.206;2023-08-24T00:52:12;11.57;;;10.57;;
16994;SDS011;8614;48.522;9.206;2023-08-24T00:54:39;11.63;;;10.73;;
16994;SDS011;8614;48.522;9.206;2023-08-24T00:57:07;11.70;;;10.80;;
16994;SDS011;8614;48.522;9.206;2023-08-24T00:59:34;11.97;;;11.07;;
16994;SDS011;8614;48.522;9.206;2023-08-24T01:02:01;11.90;;;10.90;;
16994;SDS011;8614;48.522;9.206;2023-08-24T01:04:30;12.00;;;10.90;;
16994;SDS011;8614;48.522;9.206;2023-08-24T01:06:57;11.73;;;10.80;;
16994;SDS011;8614;48.522;9.206;2023-08-24T01:09:24;12.33;;;11.23;;
16994;SDS011;8614;48.522;9.206;2023-08-24T01:11:54;12.63;;;11.37;;
16994;SDS011;8614;48.522;9.206;2023-08-24T01:14:29;11.47;;;10.57;;
16994;SDS011;8614;48.522;9.206;2023-08-24T01:17:03;12.23;;;11.13;;
16994;SDS011;8614;48.522;9.206;2023-08-24T01:19:38;12.90;;;11.70;;
16994;SDS011;8614;48.522;9.206;2023-08-24T01:22:09;11.87;;;10.87;;
16994;SDS011;8614;48.522;9.206;2023-08-24T01:24:51;11.87;;;10.97;;
16994;SDS011;8614;48.522;9.206;2023-08-24T01:27:22;11.70;;;10.70;;
16994;SDS011;8614;48.522;9.206;2023-08-24T01:29:50;11.80;;;10.90;;
16994;SDS011;8614;48.522;9.206;2023-08-24T01:32:24;12.17;;;10.97;;
16994;SDS011;8614;48.522;9.206;2023-08-24T01:34:50;11.07;;;10.17;;
16994;SDS011;8614;48.522;9.206;2023-08-24T01:37:18;12.43;;;11.13;;
16994;SDS011;8614;48.522;9.206;2023-08-24T01:39:46;11.70;;;10.60;;
16994;SDS011;8614;48.522;9.206;2023-08-24T01:42:20;12.53;;;11.27;;
16994;SDS011;8614;48.522;9.206;2023-08-24T01:44:55;12.83;;;11.67;;
16994;SDS011;8614;48.522;9.206;2023-08-24T01:47:24;12.07;;;11.07;;
16994;SDS011;8614;48.522;9.206;2023-08-24T01:49:52;12.73;;;11.73;;
16994;SDS011;8614;48.522;9.206;2023-08-24T01:52:19;12.77;;;11.77;;
16994;SDS011;8614;48.522;9.206;2023-08-24T01:54:47;12.37;;;11.40;;
16994;SDS011;8614;48.522;9.206;2023-08-24T01:57:14;11.57;;;10.67;;
16994;SDS011;8614;48.522;9.206;2023-08-24T01:59:42;12.93;;;11.83;;
16994;SDS011;8614;48.522;9.206;2023-08-24T02:02:09;12.67;;;11.47;;
16994;SDS011;8614;48.522;9.206;2023-08-24T02:04:36;12.90;;;11.80;;
16994;SDS011;8614;48.522;9.206;2023-08-24T02:07:03;13.27;;;12.20;;
16994;SDS011;8614;48.522;9.206;2023-08-24T02:09:30;12.30;;;11.40;;
16994;SDS011;8614;48.522;9.206;2023-08-24T02:11:57;13.03;;;11.93;;
16994;SDS011;8614;48.522;9.206;2023-08-24T02:14:23;12.80;;;11.70;;
16994;SDS011;8614;48.522;9.206;2023-08-24T02:16:52;12.50;;;11.57;;
16994;SDS011;8614;48.522;9.206;2023-08-24T02:19:19;12.67;;;11.70;;
16994;SDS011;8614;48.522;9.206;2023-08-24T02:21:46;13.57;;;12.50;;
16994;SDS011;8614;48.522;9.206;2023-08-24T02:24:12;13.30;;;12.10;;
16994;SDS011;8614;48.522;9.206;2023-08-24T02:26:39;13.53;;;12.40;;
16994;SDS011;8614;48.522;9.206;2023-08-24T02:29:06;13.50;;;12.23;;
16994;SDS011;8614;48.522;9.206;2023-08-24T02:31:33;13.73;;;12.63;;
16994;SDS011;8614;48.522;9.206;2023-08-24T02:34:01;13.33;;;12.27;;
16994;SDS011;8614;48.522;9.206;2023-08-24T02:36:28;13.27;;;12.17;;
16994;SDS011;8614;48.522;9.206;2023-08-24T02:38:58;13.07;;;12.17;;
16994;SDS011;8614;48.522;9.206;2023-08-24T02:41:25;12.63;;;11.63;;
16994;SDS011;8614;48.522;9.206;2023-08-24T02:43:52;12.50;;;11.57;;
16994;SDS011;8614;48.522;9.206;2023-08-24T02:46:22;12.90;;;11.90;;
16994;SDS011;8614;48.522;9.206;2023-08-24T02:48:48;13.27;;;12.27;;
16994;SDS011;8614;48.522;9.206;2023-08-24T02:51:20;13.63;;;12.53;;
16994;SDS011;8614;48.522;9.206;2023-08-24T02:53:47;13.70;;;12.70;;
16994;SDS011;8614;48.522;9.206;2023-08-24T02:56:14;13.03;;;11.93;;
16994;SDS011;8614;48.522;9.206;2023-08-24T02:58:41;12.87;;;11.97;;
16994;SDS011;8614;48.522;9.206;2023-08-24T03:01:08;13.40;;;12.13;;
16994;SDS011;8614;48.522;9.206;2023-08-24T03:03:35;13.77;;;12.50;;
16994;SDS011;8614;48.522;9.206;2023-08-24T03:06:04;13.40;;;12.30;;
16994;SDS011;8614;48.522;9.206;2023-08-24T03:08:34;13.37;;;12.37;;
16994;SDS011;8614;48.522;9.206;2023-08-24T03:11:01;13.13;;;12.23;;
16994;SDS011;8614;48.522;9.206;2023-08-24T03:13:29;13.10;;;12.17;;
16994;SDS011;8614;48.522;9.206;2023-08-24T03:15:56;12.53;;;11.63;;
16994;SDS011;8614;48.522;9.206;2023-08-24T03:18:27;13.47;;;12.47;;
16994;SDS011;8614;48.522;9.206;2023-08-24T03:20:56;13.73;;;12.73;;
16994;SDS011;8614;48.522;9.206;2023-08-24T03:23:23;14.20;;;13.00;;
16994;SDS011;8614;48.522;9.206;2023-08-24T03:25:51;13.40;;;12.40;;
16994;SDS011;8614;48.522;9.206;2023-08-24T03:28:19;13.63;;;12.63;;
16994;SDS011;8614;48.522;9.206;2023-08-24T03:30:46;13.27;;;12.37;;
16994;SDS011;8614;48.522;9.206;2023-08-24T03:33:14;13.67;;;12.50;;
16994;SDS011;8614;48.522;9.206;2023-08-24T03:35:41;14.10;;;13.00;;
16994;SDS011;8614;48.522;9.206;2023-08-24T03:38:09;13.50;;;12.50;;
16994;SDS011;8614;48.522;9.206;2023-08-24T03:40:36;13.73;;;12.73;;
16994;SDS011;8614;48.522;9.206;2023-08-24T03:43:04;12.97;;;11.97;;
16994;SDS011;8614;48.522;9.206;2023-08-24T03:45:31;13.47;;;12.47;;
16994;SDS011;8614;48.522;9.206;2023-08-24T03:47:58;13.23;;;12.33;;
16994;SDS011;8614;48.522;9.206;2023-08-24T03:50:34;13.60;;;12.70;;
16994;SDS011;8614;48.522;9.206;2023-08-24T03:53:00;13.33;;;12.43;;
16994;SDS011;8614;48.522;9.206;2023-08-24T03:55:29;13.53;;;12.57;;
16994;SDS011;8614;48.522;9.206;2023-08-24T03:57:58;13.27;;;12.37;;
16994;SDS011;8614;48.522;9.206;2023-08-24T04:00:27;12.93;;;12.03;;
16994;SDS011;8614;48.522;9.206;2023-08-24T04:02:53;13.10;;;12.20;;
16994;SDS011;8614;48.522;9.206;2023-08-24T04:05:24;13.70;;;12.70;;
16994;SDS011;8614;48.522;9.206;2023-08-24T04:07:52;14.60;;;13.30;;
16994;SDS011;8614;48.522;9.206;2023-08-24T04:10:18;13.60;;;12.50;;
16994;SDS011;8614;48.522;9.206;2023-08-24T04:12:45;13.07;;;12.17;;
16994;SDS011;8614;48.522;9.206;2023-08-24T04:15:12;13.57;;;12.47;;
16994;SDS011;8614;48.522;9.206;2023-08-24T04:17:40;13.60;;;12.60;;
16994;SDS011;8614;48.522;9.206;2023-08-24T04:20:08;13.87;;;12.67;;
16994;SDS011;8614;48.522;9.206;2023-08-24T04:22:36;13.80;;;12.80;;
16994;SDS011;8614;48.522;9.206;2023-08-24T04:25:03;13.17;;;12.27;;
16994;SDS011;8614;48.522;9.206;2023-08-24T04:27:31;13.80;;;12.80;;
16994;SDS011;8614;48.522;9.206;2023-08-24T04:29:58;13.93;;;12.83;;
16994;SDS011;8614;48.522;9.206;2023-08-24T04:32:25;13.53;;;12.53;;
16994;SDS011;8614;48.522;9.206;2023-08-24T04:34:54;13.47;;;12.47;;
16994;SDS011;8614;48.522;9.206;2023-08-24T04:37:21;12.60;;;11.70;;
16994;SDS011;8614;48.522;9.206;2023-08-24T04:39:47;13.23;;;12.23;;
16994;SDS011;8614;48.522;9.206;2023-08-24T04:42:14;13.57;;;12.57;;
16994;SDS011;8614;48.522;9.206;2023-08-24T04:44:41;13.63;;;12.60;;
16994;SDS011;8614;48.522;9.206;2023-08-24T04:47:08;13.70;;;12.60;;
16994;SDS011;8614;48.522;9.206;2023-08-24T04:49:35;13.93;;;12.90;;
16994;SDS011;8614;48.522;9.206;2023-08-24T04:52:04;13.77;;;12.87;;
16994;SDS011;8614;48.522;9.206;2023-08-24T04:54:31;13.47;;;12.47;;
16994;SDS011;8614;48.522;9.206;2023-08-24T04:56:58;14.43;;;13.33;;
16994;SDS011;8614;48.522;9.206;2023-08-24T04:59:25;14.20;;;13.17;;
16994;SDS011;8614;48.522;9.206;2023-08-24T05:01:52;14.00;;;12.90;;
16994;SDS011;8614;48.522;9.206;2023-08-24T05:04:18;13.13;;;12.23;;
16994;SDS011;8614;48.522;9.206;2023-08-24T05:06:45;13.33;;;12.33;;
16994;SDS011;8614;48.522;9.206;2023-08-24T05:09:13;13.80;;;12.80;;
16994;SDS011;8614;48.522;9.206;2023-08-24T05:11:40;13.37;;;12.37;;
16994;SDS011;8614;48.522;9.206;2023-08-24T05:14:07;13.53;;;12.43;;
16994;SDS011;8614;48.522;9.206;2023-08-24T05:16:34;13.50;;;12.50;;
16994;SDS011;8614;48.522;9.206;2023-08-24T05:19:01;12.90;;;11.90;;
16994;SDS011;8614;48.522;9.206;2023-08-24T05:21:28;13.20;;;12.20;;
16994;SDS011;8614;48.522;9.206;2023-08-24T05:23:55;13.57;;;12.47;;
16994;SDS011;8614;48.522;9.206;2023-08-24T05:26:23;13.33;;;12.33;;
16994;SDS011;8614;48.522;9.206;2023-08-24T05:28:50;13.53;;;12.53;;
16994;SDS011;8614;48.522;9.206;2023-08-24T05:31:18;13.93;;;12.93;;
16994;SDS011;8614;48.522;9.206;2023-08-24T05:33:45;13.40;;;12.37;;
16994;SDS011;8614;48.522;9.206;2023-08-24T05:36:12;13.70;;;12.43;;
16994;SDS011;8614;48.522;9.206;2023-08-24T05:38:39;14.10;;;13.00;;
16994;SDS011;8614;48.522;9.206;2023-08-24T05:41:11;14.27;;;13.17;;
16994;SDS011;8614;48.522;9.206;2023-08-24T05:43:39;14.47;;;13.17;;
16994;SDS011;8614;48.522;9.206;2023-08-24T05:46:06;13.50;;;12.27;;
16994;SDS011;8614;48.522;9.206;2023-08-24T05:48:33;13.70;;;12.70;;
16994;SDS011;8614;48.522;9.206;2023-08-24T05:51:00;13.57;;;12.47;;
16994;SDS011;8614;48.522;9.206;2023-08-24T05:53:26;13.10;;;12.10;;
16994;SDS011;8614;48.522;9.206;2023-08-24T05:55:56;12.77;;;11.87;;
16994;SDS011;8614;48.522;9.206;2023-08-24T05:58:24;12.30;;;11.40;;
16994;SDS011;8614;48.522;9.206;2023-08-24T06:00:56;9.53;;;8.73;;
16994;SDS011;8614;48.522;9.206;2023-08-24T06:03:24;12.97;;;11.87;;
16994;SDS011;8614;48.522;9.206;2023-08-24T06:05:51;11.87;;;8.73;;
16994;SDS011;8614;48.522;9.206;2023-08-24T06:08:18;13.43;;;12.23;;
16994;SDS011;8614;48.522;9.206;2023-08-24T06:10:45;12.97;;;11.97;;
16994;SDS011;8614;48.522;9.206;2023-08-24T06:13:11;12.40;;;11.60;;
16994;SDS011;8614;48.522;9.206;2023-08-24T06:15:40;12.97;;;11.97;;
16994;SDS011;8614;48.522;9.206;2023-08-24T06:18:09;12.10;;;11.17;;
16994;SDS011;8614;48.522;9.206;2023-08-24T06:20:36;12.63;;;11.70;;
16994;SDS011;8614;48.522;9.206;2023-08-24T06:23:03;12.57;;;11.53;;
16994;SDS011;8614;48.522;9.206;2023-08-24T06:25:30;12.40;;;11.40;;
16994;SDS011;8614;48.522;9.206;2023-08-24T06:27:57;12.40;;;11.50;;
16994;SDS011;8614;48.522;9.206;2023-08-24T06:30:24;13.20;;;12.10;;
16994;SDS011;8614;48.522;9.206;2023-08-24T06:33:08;12.23;;;11.30;;
16994;SDS011;8614;48.522;9.206;2023-08-24T06:35:36;12.87;;;11.87;;
16994;SDS011;8614;48.522;9.206;2023-08-24T06:38:03;12.03;;;11.13;;
16994;SDS011;8614;48.522;9.206;2023-08-24T06:40:30;11.93;;;11.03;;
16994;SDS011;8614;48.522;9.206;2023-08-24T06:42:57;12.43;;;11.53;;
16994;SDS011;8614;48.522;9.206;2023-08-24T06:45:24;12.87;;;11.80;;
16994;SDS011;8614;48.522;9.206;2023-08-24T06:47:51;11.97;;;11.07;;
16994;SDS011;8614;48.522;9.206;2023-08-24T06:50:19;11.97;;;10.97;;
16994;SDS011;8614;48.522;9.206;2023-08-24T06:52:46;12.93;;;11.90;;
16994;SDS011;8614;48.522;9.206;2023-08-24T06:55:13;12.30;;;11.40;;
16994;SDS011;8614;48.522;9.206;2023-08-24T06:57:41;11.63;;;10.83;;
16994;SDS011;8614;48.522;9.206;2023-08-24T07:00:08;11.80;;;10.90;;
16994;SDS011;8614;48.522;9.206;2023-08-24T07:02:38;12.07;;;11.17;;
16994;SDS011;8614;48.522;9.206;2023-08-24T07:05:05;12.57;;;11.67;;
16994;SDS011;8614;48.522;9.206;2023-08-24T07:07:35;12.23;;;11.33;;
16994;SDS011;8614;48.522;9.206;2023-08-24T07:10:02;11.57;;;10.63;;
16994;SDS011;8614;48.522;9.206;2023-08-24T07:12:29;12.77;;;11.57;;
16994;SDS011;8614;48.522;9.206;2023-08-24T07:14:56;12.13;;;11.03;;
16994;SDS011;8614;48.522;9.206;2023-08-24T07:17:23;12.70;;;11.77;;
16994;SDS011;8614;48.522;9.206;2023-08-24T07:19:50;11.60;;;10.70;;
16994;SDS011;8614;48.522;9.206;2023-08-24T07:22:16;11.60;;;10.50;;
16994;SDS011;8614;48.522;9.206;2023-08-24T07:24:45;12.90;;;11.80;;
16994;SDS011;8614;48.522;9.206;2023-08-24T07:27:17;12.33;;;11.40;;
16994;SDS011;8614;48.522;9.206;2023-08-24T07:29:44;12.37;;;11.47;;
16994;SDS011;8614;48.522;9.206;2023-08-24T07:32:11;7.80;;;7.00;;
16994;SDS011;8614;48.522;9.206;2023-08-24T07:34:38;12.40;;;11.20;;
16994;SDS011;8614;48.522;9.206;2023-08-24T07:37:04;13.37;;;12.10;;
16994;SDS011;8614;48.522;9.206;2023-08-24T07:39:32;11.67;;;10.77;;
16994;SDS011;8614;48.522;9.206;2023-08-24T07:42:00;12.30;;;11.33;;
16994;SDS011;8614;48.522;9.206;2023-08-24T07:44:27;12.03;;;11.23;;
16994;SDS011;8614;48.522;9.206;2023-08-24T07:46:55;13.00;;;11.70;;
16994;SDS011;8614;48.522;9.206;2023-08-24T07:49:22;12.03;;;11.00;;
16994;SDS011;8614;48.522;9.206;2023-08-24T07:51:49;11.83;;;10.70;;
16994;SDS011;8614;48.522;9.206;2023-08-24T07:54:16;10.23;;;9.23;;
16994;SDS011;8614;48.522;9.206;2023-08-24T07:56:42;9.40;;;8.60;;
16994;SDS011;8614;48.522;9.206;2023-08-24T07:59:10;10.70;;;9.70;;
16994;SDS011;8614;48.522;9.206;2023-08-24T08:01:37;11.03;;;10.23;;
16994;SDS011;8614;48.522;9.206;2023-08-24T08:04:04;9.03;;;7.07;;
16994;SDS011;8614;48.522;9.206;2023-08-24T08:06:31;7.60;;;6.60;;
16994;SDS011;8614;48.522;9.206;2023-08-24T08:08:58;9.23;;;8.07;;
16994;SDS011;8614;48.522;9.206;2023-08-24T08:11:25;10.93;;;10.03;;
16994;SDS011;8614;48.522;9.206;2023-08-24T08:13:52;11.83;;;10.70;;
16994;SDS011;8614;48.522;9.206;2023-08-24T08:16:20;6.67;;;5.97;;
16994;SDS011;8614;48.522;9.206;2023-08-24T08:18:47;11.10;;;10.20;;
16994;SDS011;8614;48.522;9.206;2023-08-24T08:21:14;10.43;;;9.50;;
16994;SDS011;8614;48.522;9.206;2023-08-24T08:23:44;10.17;;;9.47;;
16994;SDS011;8614;48.522;9.206;2023-08-24T08:26:11;11.00;;;10.10;;
16994;SDS011;8614;48.522;9.206;2023-08-24T08:28:39;10.00;;;9.20;;
16994;SDS011;8614;48.522;9.206;2023-08-24T08:31:06;10.43;;;9.33;;
16994;SDS011;8614;48.522;9.206;2023-08-24T08:33:34;11.10;;;10.27;;
16994;SDS011;8614;48.522;9.206;2023-08-24T08:36:01;9.13;;;8.30;;
16994;SDS011;8614;48.522;9.206;2023-08-24T08:38:28;9.70;;;8.70;;
16994;SDS011;8614;48.522;9.206;2023-08-24T08:40:55;9.73;;;8.87;;
16994;SDS011;8614;48.522;9.206;2023-08-24T08:43:27;10.00;;;9.10;;
16994;SDS011;8614;48.522;9.206;2023-08-24T08:45:55;9.53;;;8.80;;
16994;SDS011;8614;48.522;9.206;2023-08-24T08:48:22;10.00;;;9.30;;
16994;SDS011;8614;48.522;9.206;2023-08-24T08:50:52;9.60;;;8.77;;
16994;SDS011;8614;48.522;9.206;2023-08-24T08:53:21;10.97;;;9.73;;
16994;SDS011;8614;48.522;9.206;2023-08-24T08:55:49;11.37;;;10.57;;
16994;SDS011;8614;48.522;9.206;2023-08-24T08:58:19;10.67;;;9.80;;
16994;SDS011;8614;48.522;9.206;2023-08-24T09:00:46;11.00;;;10.10;;
16994;SDS011;8614;48.522;9.206;2023-08-24T09:03:14;11.43;;;10.50;;
16994;SDS011;8614;48.522;9.206;2023-08-24T09:05:44;11.93;;;9.87;;
16994;SDS011;8614;48.522;9.206;2023-08-24T09:08:14;9.83;;;8.93;;
16994;SDS011;8614;48.522;9.206;2023-08-24T09:10:42;9.27;;;8.57;;
16994;SDS011;8614;48.522;9.206;2023-08-24T09:13:09;9.37;;;8.53;;
16994;SDS011;8614;48.522;9.206;2023-08-24T09:15:36;11.17;;;9.97;;
16994;SDS011;8614;48.522;9.206;2023-08-24T09:18:03;9.47;;;8.57;;
16994;SDS011;8614;48.522;9.206;2023-08-24T09:20:30;10.33;;;9.37;;
16994;SDS011;8614;48.522;9.206;2023-08-24T09:22:57;11.17;;;10.23;;
16994;SDS011;8614;48.522;9.206;2023-08-24T09:25:25;11.20;;;10.33;;
16994;SDS011;8614;48.522;9.206;2023-08-24T09:27:58;10.23;;;9.33;;
16994;SDS011;8614;48.522;9.206;2023-08-24T09:30:28;10.53;;;9.73;;
16994;SDS011;8614;48.522;9.206;2023-08-24T09:33:00;10.90;;;10.10;;
16994;SDS011;8614;48.522;9.206;2023-08-24T09:35:28;10.80;;;9.97;;
16994;SDS011;8614;48.522;9.206;2023-08-24T09:37:55;10.70;;;9.90;;
16994;SDS011;8614;48.522;9.206;2023-08-24T09:40:23;10.80;;;10.00;;
16994;SDS011;8614;48.522;9.206;2023-08-24T09:42:52;10.87;;;9.87;;
16994;SDS011;8614;48.522;9.206;2023-08-24T09:45:18;11.73;;;10.63;;
16994;SDS011;8614;48.522;9.206;2023-08-24T09:47:46;11.20;;;10.17;;
16994;SDS011;8614;48.522;9.206;2023-08-24T09:50:15;10.80;;;9.70;;
16994;SDS011;8614;48.522;9.206;2023-08-24T09:52:42;11.27;;;10.37;;
16994;SDS011;8614;48.522;9.206;2023-08-24T09:55:09;11.50;;;10.67;;
16994;SDS011;8614;48.522;9.206;2023-08-24T09:57:41;11.03;;;10.23;;
16994;SDS011;8614;48.522;9.206;2023-08-24T10:00:09;10.80;;;10.00;;
16994;SDS011;8614;48.522;9.206;2023-08-24T10:02:36;10.57;;;9.77;;
16994;SDS011;8614;48.522;9.206;2023-08-24T10:05:05;10.60;;;9.63;;
16994;SDS011;8614;48.522;9.206;2023-08-24T10:07:33;11.43;;;10.40;;
16994;SDS011;8614;48.522;9.206;2023-08-24T10:10:03;10.57;;;9.83;;
16994;SDS011;8614;48.522;9.206;2023-08-24T10:12:36;10.93;;;10.07;;
16994;SDS011;8614;48.522;9.206;2023-08-24T10:15:08;10.83;;;9.97;;
16994;SDS011;8614;48.522;9.206;2023-08-24T10:17:36;10.17;;;9.37;;
16994;SDS011;8614;48.522;9.206;2023-08-24T10:20:05;10.00;;;9.13;;
16994;SDS011;8614;48.522;9.206;2023-08-24T10:22:34;10.87;;;9.50;;
16994;SDS011;8614;48.522;9.206;2023-08-24T10:25:02;10.30;;;9.50;;
16994;SDS011;8614;48.522;9.206;2023-08-24T10:27:29;10.50;;;9.67;;
16994;SDS011;8614;48.522;9.206;2023-08-24T10:29:58;10.40;;;9.60;;
16994;SDS011;8614;48.522;9.206;2023-08-24T10:32:25;10.60;;;9.90;;
16994;SDS011;8614;48.522;9.206;2023-08-24T10:34:53;10.80;;;10.00;;
16994;SDS011;8614;48.522;9.206;2023-08-24T10:37:24;10.50;;;9.70;;
16994;SDS011;8614;48.522;9.206;2023-08-24T10:39:52;11.60;;;10.40;;
16994;SDS011;8614;48.522;9.206;2023-08-24T10:42:18;10.43;;;9.67;;
16994;SDS011;8614;48.522;9.206;2023-08-24T10:44:47;11.47;;;10.47;;
16994;SDS011;8614;48.522;9.206;2023-08-24T10:47:18;10.47;;;9.77;;
16994;SDS011;8614;48.522;9.206;2023-08-24T10:49:56;10.53;;;9.70;;
16994;SDS011;8614;48.522;9.206;2023-08-24T10:52:25;8.57;;;7.87;;
16994;SDS011;8614;48.522;9.206;2023-08-24T10:54:56;8.57;;;7.90;;
16994;SDS011;8614;48.522;9.206;2023-08-24T10:57:24;8.50;;;7.80;;
16994;SDS011;8614;48.522;9.206;2023-08-24T10:59:59;9.77;;;7.90;;
16994;SDS011;8614;48.522;9.206;2023-08-24T11:02:33;6.60;;;5.50;;
16994;SDS011;8614;48.522;9.206;2023-08-24T11:05:14;5.75;;;5.15;;
16994;SDS011;8614;48.522;9.206;2023-08-24T11:07:49;6.73;;;5.07;;
16994;SDS011;8614;48.522;9.206;2023-08-24T11:10:17;6.67;;;6.07;;
16994;SDS011;8614;48.522;9.206;2023-08-24T11:15:34;11.83;;;6.10;;
16994;SDS011;8614;48.522;9.206;2023-08-24T11:18:14;5.97;;;5.03;;
16994;SDS011;8614;48.522;9.206;2023-08-24T11:20:46;7.87;;;5.73;;
16994;SDS011;8614;48.522;9.206;2023-08-24T11:23:14;9.60;;;6.00;;
16994;SDS011;8614;48.522;9.206;2023-08-24T11:25:42;6.53;;;5.93;;
16994;SDS011;8614;48.522;9.206;2023-08-24T11:28:09;6.20;;;5.60;;
16994;SDS011;8614;48.522;9.206;2023-08-24T11:30:36;6.20;;;5.60;;
16994;SDS011;8614;48.522;9.206;2023-08-24T11:33:03;6.17;;;5.67;;
16994;SDS011;8614;48.522;9.206;2023-08-24T11:35:36;7.33;;;5.57;;
16994;SDS011;8614;48.522;9.206;2023-08-24T11:38:03;6.57;;;5.77;;
16994;SDS011;8614;48.522;9.206;2023-08-24T11:40:29;6.17;;;5.57;;
16994;SDS011;8614;48.522;9.206;2023-08-24T11:42:56;8.70;;;8.07;;
16994;SDS011;8614;48.522;9.206;2023-08-24T11:45:23;9.80;;;8.80;;
16994;SDS011;8614;48.522;9.206;2023-08-24T11:47:57;9.77;;;8.87;;
16994;SDS011;8614;48.522;9.206;2023-08-24T11:50:25;7.27;;;5.80;;
16994;SDS011;8614;48.522;9.206;2023-08-24T11:52:54;7.63;;;5.68;;
16994;SDS011;8614;48.522;9.206;2023-08-24T11:55:21;6.13;;;5.50;;
16994;SDS011;8614;48.522;9.206;2023-08-24T11:57:48;7.23;;;6.53;;
16994;SDS011;8614;48.522;9.206;2023-08-24T12:00:14;6.82;;;5.57;;
16994;SDS011;8614;48.522;9.206;2023-08-24T12:02:43;8.73;;;7.93;;
16994;SDS011;8614;48.522;9.206;2023-08-24T12:05:19;8.30;;;7.60;;
16994;SDS011;8614;48.522;9.206;2023-08-24T12:07:47;9.90;;;9.00;;
16994;SDS011;8614;48.522;9.206;2023-08-24T12:10:15;9.70;;;8.77;;
16994;SDS011;8614;48.522;9.206;2023-08-24T12:12:42;9.90;;;8.77;;
16994;SDS011;8614;48.522;9.206;2023-08-24T12:15:14;8.87;;;8.20;;
16994;SDS011;8614;48.522;9.206;2023-08-24T12:17:43;8.57;;;7.87;;
16994;SDS011;8614;48.522;9.206;2023-08-24T12:20:16;7.43;;;6.93;;
16994;SDS011;8614;48.522;9.206;2023-08-24T12:22:44;7.55;;;6.75;;
16994;SDS011;8614;48.522;9.206;2023-08-24T12:25:18;7.97;;;7.32;;
16994;SDS011;8614;48.522;9.206;2023-08-24T12:27:47;5.95;;;5.45;;
16994;SDS011;8614;48.522;9.206;2023-08-24T12:30:14;7.05;;;6.45;;
16994;SDS011;8614;48.522;9.206;2023-08-24T12:32:41;6.68;;;5.65;;
16994;SDS011;8614;48.522;9.206;2023-08-24T12:35:09;10.77;;;7.15;;
16994;SDS011;8614;48.522;9.206;2023-08-24T12:37:36;12.80;;;8.02;;
16994;SDS011;8614;48.522;9.206;2023-08-24T12:40:03;9.95;;;7.57;;
16994;SDS011;8614;48.522;9.206;2023-08-24T12:42:32;10.18;;;5.47;;
16994;SDS011;8614;48.522;9.206;2023-08-24T12:44:59;9.27;;;5.88;;
16994;SDS011;8614;48.522;9.206;2023-08-24T12:47:26;15.77;;;5.68;;
16994;SDS011;8614;48.522;9.206;2023-08-24T12:49:53;6.53;;;5.20;;
16994;SDS011;8614;48.522;9.206;2023-08-24T12:52:21;8.85;;;5.30;;
16994;SDS011;8614;48.522;9.206;2023-08-24T12:54:48;8.98;;;5.70;;
16994;SDS011;8614;48.522;9.206;2023-08-24T12:57:15;8.07;;;5.40;;
16994;SDS011;8614;48.522;9.206;2023-08-24T12:59:44;9.68;;;6.15;;
16994;SDS011;8614;48.522;9.206;2023-08-24T13:02:11;10.02;;;5.57;;
16994;SDS011;8614;48.522;9.206;2023-08-24T13:04:38;7.10;;;5.43;;
16994;SDS011;8614;48.522;9.206;2023-08-24T13:07:05;6.35;;;5.38;;
16994;SDS011;8614;48.522;9.206;2023-08-24T13:09:31;7.30;;;5.05;;
16994;SDS011;8614;48.522;9.206;2023-08-24T13:11:58;12.30;;;6.03;;
16994;SDS011;8614;48.522;9.206;2023-08-24T13:14:25;9.60;;;5.87;;
16994;SDS011;8614;48.522;9.206;2023-08-24T13:16:53;7.88;;;5.97;;
16994;SDS011;8614;48.522;9.206;2023-08-24T13:19:20;7.28;;;5.45;;
16994;SDS011;8614;48.522;9.206;2023-08-24T13:21:47;8.13;;;7.32;;
16994;SDS011;8614;48.522;9.206;2023-08-24T13:24:13;7.60;;;6.80;;
16994;SDS011;8614;48.522;9.206;2023-08-24T13:26:40;7.30;;;6.60;;
16994;SDS011;8614;48.522;9.206;2023-08-24T13:29:07;9.70;;;7.78;;
16994;SDS011;8614;48.522;9.206;2023-08-24T13:31:40;8.50;;;7.68;;
16994;SDS011;8614;48.522;9.206;2023-08-24T13:34:12;8.98;;;7.40;;
16994;SDS011;8614;48.522;9.206;2023-08-24T13:36:39;7.75;;;6.95;;
16994;SDS011;8614;48.522;9.206;2023-08-24T13:39:06;7.90;;;7.13;;
16994;SDS011;8614;48.522;9.206;2023-08-24T13:41:33;8.32;;;7.30;;
16994;SDS011;8614;48.522;9.206;2023-08-24T13:44:00;8.40;;;7.20;;
16994;SDS011;8614;48.522;9.206;2023-08-24T13:46:27;8.95;;;7.45;;
16994;SDS011;8614;48.522;9.206;2023-08-24T13:48:54;8.13;;;7.32;;
16994;SDS011;8614;48.522;9.206;2023-08-24T13:51:22;11.65;;;7.70;;
16994;SDS011;8614;48.522;9.206;2023-08-24T13:53:49;12.63;;;7.50;;
16994;SDS011;8614;48.522;9.206;2023-08-24T13:56:15;7.40;;;6.70;;
16994;SDS011;8614;48.522;9.206;2023-08-24T13:58:42;12.52;;;6.60;;
16994;SDS011;8614;48.522;9.206;2023-08-24T14:01:09;9.65;;;8.13;;
16994;SDS011;8614;48.522;9.206;2023-08-24T14:03:37;10.83;;;8.03;;
16994;SDS011;8614;48.522;9.206;2023-08-24T14:06:05;9.10;;;7.60;;
16994;SDS011;8614;48.522;9.206;2023-08-24T14:08:33;8.05;;;6.32;;
16994;SDS011;8614;48.522;9.206;2023-08-24T14:11:00;6.25;;;5.18;;
16994;SDS011;8614;48.522;9.206;2023-08-24T14:13:27;6.70;;;5.07;;
16994;SDS011;8614;48.522;9.206;2023-08-24T14:15:54;6.20;;;5.03;;
16994;SDS011;8614;48.522;9.206;2023-08-24T14:18:22;5.88;;;4.53;;
16994;SDS011;8614;48.522;9.206;2023-08-24T14:20:49;7.03;;;5.45;;
16994;SDS011;8614;48.522;9.206;2023-08-24T14:23:16;6.10;;;4.55;;
16994;SDS011;8614;48.522;9.206;2023-08-24T14:25:44;7.82;;;5.90;;
16994;SDS011;8614;48.522;9.206;2023-08-24T14:28:13;7.85;;;7.07;;
16994;SDS011;8614;48.522;9.206;2023-08-24T14:30:40;7.45;;;6.75;;
16994;SDS011;8614;48.522;9.206;2023-08-24T14:33:09;10.38;;;7.40;;
16994;SDS011;8614;48.522;9.206;2023-08-24T14:35:36;8.35;;;7.63;;
16994;SDS011;8614;48.522;9.206;2023-08-24T14:38:03;7.63;;;6.93;;
16994;SDS011;8614;48.522;9.206;2023-08-24T14:40:30;9.15;;;6.93;;
16994;SDS011;8614;48.522;9.206;2023-08-24T14:42:58;10.10;;;7.30;;
16994;SDS011;8614;48.522;9.206;2023-08-24T14:45:25;7.57;;;6.80;;
16994;SDS011;8614;48.522;9.206;2023-08-24T14:47:51;10.88;;;7.25;;
16994;SDS011;8614;48.522;9.206;2023-08-24T14:50:18;7.25;;;6.47;;